createdAt,value
2023-03-25T00:01:35.016Z,43.20
2023-03-25T00:04:27.232Z,43.62
2023-03-25T00:07:16.391Z,43.36
2023-03-25T00:10:05.389Z,43.30
2023-03-25T00:12:54.407Z,43.01
2023-03-25T00:15:46.052Z,42.92
2023-03-25T00:18:34.828Z,42.59
2023-03-25T00:21:24.827Z,42.88
2023-03-25T00:24:18.063Z,42.56
2023-03-25T00:27:06.756Z,42.72
2023-03-25T00:29:55.826Z,42.79
2023-03-25T00:32:50.377Z,42.90
2023-03-25T00:35:39.618Z,42.79
2023-03-25T00:38:33.577Z,42.58
2023-03-25T00:41:25.327Z,42.56
2023-03-25T00:44:14.330Z,42.51
2023-03-25T00:47:02.911Z,42.51
2023-03-25T00:49:52.637Z,42.50
2023-03-25T00:52:41.388Z,42.60
2023-03-25T00:55:31.421Z,42.72
2023-03-25T00:58:20.512Z,42.77
2023-03-25T01:01:13.369Z,42.78
2023-03-25T01:04:02.240Z,42.41
2023-03-25T01:06:51.930Z,42.26
2023-03-25T01:09:41.622Z,42.31
2023-03-25T01:12:31.679Z,42.24
2023-03-25T01:15:20.558Z,42.55
2023-03-25T01:18:10.146Z,42.78
2023-03-25T01:20:58.736Z,42.64
2023-03-25T01:23:47.462Z,42.77
2023-03-25T01:26:36.287Z,42.73
2023-03-25T01:29:26.381Z,42.34
2023-03-25T01:32:15.314Z,42.39
2023-03-25T01:35:05.373Z,42.42
2023-03-25T01:37:54.634Z,42.27
2023-03-25T01:40:43.452Z,42.32
2023-03-25T01:43:32.955Z,42.19
2023-03-25T01:46:22.906Z,42.47
2023-03-25T01:49:13.920Z,42.01
2023-03-25T01:52:05.773Z,41.95
2023-03-25T01:54:55.940Z,41.80
2023-03-25T01:57:46.300Z,41.98
2023-03-25T02:00:35.403Z,42.17
2023-03-25T02:03:26.183Z,42.00
2023-03-25T02:06:18.404Z,42.10
2023-03-25T02:09:09.062Z,41.93
2023-03-25T02:11:57.715Z,41.76
2023-03-25T02:14:46.377Z,42.04
2023-03-25T02:17:42.338Z,42.10
2023-03-25T02:21:09.444Z,41.99
2023-03-25T02:24:35.405Z,42.07
2023-03-25T02:27:33.735Z,42.36
2023-03-25T02:30:48.424Z,42.43
2023-03-25T02:33:50.569Z,42.10
2023-03-25T02:37:11.198Z,41.87
2023-03-25T02:40:07.130Z,42.27
2023-03-25T02:43:01.076Z,42.01
2023-03-25T02:45:53.815Z,42.20
2023-03-25T02:48:48.308Z,42.29
2023-03-25T02:51:39.336Z,41.98
2023-03-25T02:54:29.152Z,41.68
2023-03-25T02:57:21.863Z,41.98
2023-03-25T03:00:15.837Z,41.69
2023-03-25T03:03:06.594Z,41.65
2023-03-25T03:05:58.290Z,41.59
2023-03-25T03:09:07.529Z,41.49
2023-03-25T03:12:05.656Z,41.64
2023-03-25T03:15:11.390Z,41.90
2023-03-25T03:18:07.904Z,41.50
2023-03-25T03:21:01.062Z,41.24
2023-03-25T03:23:57.410Z,41.36
2023-03-25T03:26:50.115Z,41.47
2023-03-25T03:29:43.225Z,41.21
2023-03-25T03:32:43.582Z,41.27
2023-03-25T03:35:34.350Z,41.09
2023-03-25T03:38:25.421Z,41.36
2023-03-25T03:41:16.841Z,41.27
2023-03-25T03:44:08.114Z,41.41
2023-03-25T03:47:01.158Z,41.45
2023-03-25T03:49:54.717Z,41.41
2023-03-25T03:52:46.255Z,41.35
2023-03-25T03:55:39.170Z,41.38
2023-03-25T03:58:31.262Z,41.72
2023-03-25T04:01:30.324Z,41.22
2023-03-25T04:04:22.224Z,41.19
2023-03-25T04:07:15.776Z,41.20
2023-03-25T04:10:14.775Z,41.28
2023-03-25T04:13:06.376Z,41.21
2023-03-25T04:15:55.110Z,41.36
2023-03-25T04:18:48.017Z,41.52
2023-03-25T04:21:36.628Z,40.96
2023-03-25T04:24:26.725Z,41.04
2023-03-25T04:27:15.919Z,41.08
2023-03-25T04:30:05.239Z,41.28
2023-03-25T04:32:54.170Z,41.34
2023-03-25T04:35:43.359Z,41.13
2023-03-25T04:38:32.273Z,40.99
2023-03-25T04:41:22.259Z,41.07
2023-03-25T04:44:11.185Z,41.24
2023-03-25T04:46:59.920Z,40.96
2023-03-25T04:49:48.674Z,40.86
2023-03-25T04:52:38.239Z,41.08
2023-03-25T04:55:26.782Z,40.93
2023-03-25T04:58:17.192Z,40.80
2023-03-25T05:01:06.951Z,41.10
2023-03-25T05:03:57.934Z,41.08
2023-03-25T05:06:50.466Z,40.87
2023-03-25T05:09:39.154Z,41.05
2023-03-25T05:12:27.848Z,41.16
2023-03-25T05:15:18.798Z,41.04
2023-03-25T05:18:10.589Z,41.14
2023-03-25T05:21:00.981Z,40.77
2023-03-25T05:23:49.738Z,40.77
2023-03-25T05:26:39.905Z,41.03
2023-03-25T05:29:28.544Z,40.86
2023-03-25T05:32:18.648Z,40.76
2023-03-25T05:35:08.290Z,40.70
2023-03-25T05:37:57.644Z,40.66
2023-03-25T05:40:47.683Z,40.36
2023-03-25T05:43:36.389Z,40.47
2023-03-25T05:46:25.021Z,40.39
2023-03-25T05:49:15.045Z,40.56
2023-03-25T05:52:03.757Z,40.42
2023-03-25T05:54:52.520Z,40.02
2023-03-25T05:57:41.175Z,40.07
2023-03-25T06:00:30.992Z,40.03
2023-03-25T06:03:20.899Z,40.20
2023-03-25T06:06:14.070Z,40.36
2023-03-25T06:09:02.957Z,40.17
2023-03-25T06:11:53.459Z,40.21
2023-03-25T06:14:45.872Z,40.38
2023-03-25T06:17:34.903Z,39.90
2023-03-25T06:20:23.617Z,40.25
2023-03-25T06:23:13.675Z,40.44
2023-03-25T06:26:04.342Z,40.01
2023-03-25T06:28:53.191Z,40.08
2023-03-25T06:31:42.896Z,39.60
2023-03-25T06:34:32.929Z,39.90
2023-03-25T06:37:21.972Z,39.91
2023-03-25T06:40:13.479Z,40.14
2023-03-25T06:43:02.250Z,40.04
2023-03-25T06:45:53.479Z,40.12
2023-03-25T06:48:42.442Z,39.98
2023-03-25T06:51:31.269Z,40.02
2023-03-25T06:54:22.758Z,39.94
2023-03-25T06:57:12.904Z,40.21
2023-03-25T07:00:01.916Z,39.75
2023-03-25T07:02:50.630Z,40.09
2023-03-25T07:05:43.865Z,39.95
2023-03-25T07:08:32.908Z,39.55
2023-03-25T07:11:29.701Z,39.74
2023-03-25T07:14:19.762Z,39.84
2023-03-25T07:17:08.919Z,39.83
2023-03-25T07:19:57.643Z,39.79
2023-03-25T07:22:46.360Z,40.07
2023-03-25T07:25:35.374Z,40.11
2023-03-25T07:28:24.458Z,39.86
2023-03-25T07:31:16.272Z,39.51
2023-03-25T07:34:05.755Z,39.78
2023-03-25T07:36:54.425Z,39.62
2023-03-25T07:39:43.392Z,39.67
2023-03-25T07:42:32.543Z,40.04
2023-03-25T07:45:21.147Z,40.15
2023-03-25T07:48:14.651Z,40.14
2023-03-25T07:51:03.525Z,40.08
2023-03-25T07:53:52.310Z,40.23
2023-03-25T07:56:41.097Z,39.88
2023-03-25T07:59:29.868Z,40.18
2023-03-25T08:02:18.691Z,40.25
2023-03-25T08:05:09.579Z,40.09
2023-03-25T08:08:00.408Z,40.17
2023-03-25T08:10:49.106Z,40.33
2023-03-25T08:13:37.875Z,40.38
2023-03-25T08:16:26.581Z,40.08
2023-03-25T08:19:15.497Z,40.32
2023-03-25T08:22:05.869Z,40.40
2023-03-25T08:24:54.640Z,39.97
2023-03-25T08:27:43.769Z,40.10
2023-03-25T08:30:38.121Z,39.77
2023-03-25T08:33:34.087Z,40.08
2023-03-25T08:36:23.649Z,40.05
2023-03-25T08:39:17.264Z,39.98
2023-03-25T08:42:06.753Z,40.23
2023-03-25T08:44:55.343Z,40.25
2023-03-25T08:47:45.742Z,39.82
2023-03-25T08:50:34.662Z,40.37
2023-03-25T08:53:23.448Z,40.47
2023-03-25T08:56:13.574Z,40.82
2023-03-25T08:59:02.227Z,40.60
2023-03-25T09:01:51.693Z,40.47
2023-03-25T09:04:41.730Z,40.59
2023-03-25T09:07:30.956Z,40.73
2023-03-25T09:10:20.058Z,40.66
2023-03-25T09:13:10.061Z,41.45
2023-03-25T09:15:59.548Z,41.50
2023-03-25T09:18:48.309Z,41.24
2023-03-25T09:21:36.985Z,41.26
2023-03-25T09:24:25.936Z,41.61
2023-03-25T09:27:14.581Z,41.58
2023-03-25T09:30:05.626Z,41.22
2023-03-25T09:32:54.418Z,40.75
2023-03-25T09:35:43.291Z,40.88
2023-03-25T09:38:32.264Z,40.74
2023-03-25T09:41:42.231Z,40.62
2023-03-25T09:44:34.542Z,41.05
2023-03-25T09:47:25.117Z,40.73
2023-03-25T09:50:17.104Z,40.50
2023-03-25T09:53:09.270Z,40.17
2023-03-25T09:55:58.058Z,40.55
2023-03-25T09:58:48.597Z,40.17
2023-03-25T10:01:43.677Z,40.03
2023-03-25T10:04:51.691Z,40.18
2023-03-25T10:07:47.533Z,39.93
2023-03-25T10:10:41.800Z,40.13
2023-03-25T10:13:38.440Z,40.41
2023-03-25T10:16:33.037Z,40.15
2023-03-25T10:19:31.819Z,40.46
2023-03-25T10:22:28.063Z,40.29
2023-03-25T10:25:20.936Z,40.05
2023-03-25T10:28:14.168Z,39.93
2023-03-25T10:31:04.142Z,40.23
2023-03-25T10:33:56.175Z,39.58
2023-03-25T10:36:49.347Z,38.94
2023-03-25T10:39:45.531Z,38.75
2023-03-25T10:42:37.299Z,37.89
2023-03-25T10:45:26.550Z,38.12
2023-03-25T10:48:18.712Z,38.57
2023-03-25T10:51:10.841Z,38.90
2023-03-25T10:53:59.548Z,38.63
2023-03-25T10:56:52.053Z,38.53
2023-03-25T10:59:45.349Z,38.67
2023-03-25T11:02:35.592Z,38.64
2023-03-25T11:05:27.761Z,38.33
2023-03-25T11:08:24.410Z,38.49
2023-03-25T11:11:15.253Z,38.52
2023-03-25T11:14:05.734Z,38.54
2023-03-25T11:16:57.361Z,38.78
2023-03-25T11:19:48.851Z,38.77
2023-03-25T11:22:39.126Z,38.65
2023-03-25T11:25:32.210Z,38.78
2023-03-25T11:28:22.979Z,38.71
2023-03-25T11:31:17.622Z,38.63
2023-03-25T11:34:08.538Z,38.34
2023-03-25T11:37:04.526Z,38.33
2023-03-25T11:39:55.553Z,38.34
2023-03-25T11:42:49.960Z,38.20
2023-03-25T11:45:39.916Z,38.20
2023-03-25T11:48:33.101Z,38.18
2023-03-25T11:51:23.587Z,38.12
2023-03-25T11:54:14.803Z,38.03
2023-03-25T11:57:05.446Z,37.96
2023-03-25T12:00:06.896Z,37.96
2023-03-25T12:03:02.170Z,37.92
2023-03-25T12:06:05.367Z,37.84
2023-03-25T12:08:55.519Z,38.04
2023-03-25T12:11:47.092Z,38.28
2023-03-25T12:14:51.286Z,37.85
2023-03-25T12:17:56.906Z,37.84
2023-03-25T12:20:56.166Z,37.40
2023-03-25T12:23:53.527Z,37.68
2023-03-25T12:26:48.632Z,37.59
2023-03-25T12:29:44.846Z,37.54
2023-03-25T12:32:40.662Z,37.48
2023-03-25T12:35:33.972Z,37.50
2023-03-25T12:38:36.437Z,37.42
2023-03-25T12:41:31.568Z,37.29
2023-03-25T12:44:36.277Z,37.03
2023-03-25T12:47:26.718Z,36.99
2023-03-25T12:50:23.043Z,36.95
2023-03-25T12:53:26.437Z,36.96
2023-03-25T12:56:35.191Z,36.94
2023-03-25T12:59:36.277Z,37.16
2023-03-25T13:02:37.612Z,37.30
2023-03-25T13:05:28.969Z,37.14
2023-03-25T13:08:20.980Z,37.29
2023-03-25T13:11:14.408Z,37.05
2023-03-25T13:14:10.017Z,37.26
2023-03-25T13:17:03.032Z,37.04
2023-03-25T13:19:53.186Z,36.90
2023-03-25T13:22:44.857Z,36.90
2023-03-25T13:25:37.712Z,36.76
2023-03-25T13:28:30.478Z,36.56
2023-03-25T13:31:21.904Z,36.36
2023-03-25T13:34:20.793Z,36.41
2023-03-25T13:37:14.204Z,36.58
2023-03-25T13:40:11.948Z,36.57
2023-03-25T13:43:03.429Z,36.25
2023-03-25T13:45:55.044Z,35.65
2023-03-25T13:48:49.784Z,36.10
2023-03-25T13:51:39.181Z,36.20
2023-03-25T13:54:31.311Z,36.14
2023-03-25T13:57:47.484Z,36.16
2023-03-25T14:00:56.433Z,36.06
2023-03-25T14:04:24.934Z,36.08
2023-03-25T14:07:30.984Z,35.84
2023-03-25T14:10:39.726Z,35.89
2023-03-25T14:13:32.764Z,35.44
2023-03-25T14:16:23.805Z,35.60
2023-03-25T14:19:14.687Z,35.48
2023-03-25T14:22:09.389Z,35.46
2023-03-25T14:25:00.851Z,35.33
2023-03-25T14:27:51.293Z,35.51
2023-03-25T14:30:40.059Z,35.03
2023-03-25T14:33:30.049Z,35.41
2023-03-25T14:36:18.698Z,35.29
2023-03-25T14:39:12.464Z,35.11
2023-03-25T14:42:03.324Z,34.72
2023-03-25T14:44:54.550Z,34.44
2023-03-25T14:47:53.866Z,34.74
2023-03-25T14:50:43.112Z,35.01
2023-03-25T14:53:32.680Z,35.22
2023-03-25T14:56:25.585Z,35.15
2023-03-25T14:59:17.030Z,35.54
2023-03-25T15:02:10.929Z,35.77
2023-03-25T15:05:00.721Z,35.59
2023-03-25T15:07:51.552Z,35.93
2023-03-25T15:10:42.270Z,35.65
2023-03-25T15:13:33.377Z,35.95
2023-03-25T15:16:34.103Z,35.89
2023-03-25T15:19:23.267Z,35.87
2023-03-25T15:22:23.153Z,35.64
2023-03-25T15:25:16.624Z,35.92
2023-03-25T15:28:14.767Z,35.99
2023-03-25T15:31:14.976Z,35.68
2023-03-25T15:34:17.308Z,35.84
2023-03-25T15:37:46.734Z,35.88
2023-03-25T15:40:47.926Z,35.65
2023-03-25T15:44:18.182Z,35.50
2023-03-25T15:47:30.905Z,35.46
2023-03-25T15:50:26.512Z,35.54
2023-03-25T15:53:46.094Z,35.27
2023-03-25T15:56:38.243Z,35.15
2023-03-25T15:59:33.445Z,35.19
2023-03-25T16:02:27.982Z,35.42
2023-03-25T16:05:17.804Z,35.23
2023-03-25T16:08:10.537Z,34.77
2023-03-25T16:10:59.272Z,34.87
2023-03-25T16:13:48.173Z,34.73
2023-03-25T16:16:39.208Z,35.02
2023-03-25T16:19:30.589Z,34.73
2023-03-25T16:22:23.243Z,35.19
2023-03-25T16:25:19.713Z,34.91
2023-03-25T16:28:14.319Z,35.06
2023-03-25T16:31:04.501Z,34.82
2023-03-25T16:33:53.168Z,34.68
2023-03-25T16:36:43.960Z,34.63
2023-03-25T16:39:34.392Z,34.79
2023-03-25T16:42:27.865Z,34.80
2023-03-25T16:45:18.258Z,34.53
2023-03-25T16:48:09.729Z,34.57
2023-03-25T16:51:01.328Z,34.53
2023-03-25T16:53:51.889Z,34.88
2023-03-25T16:56:41.278Z,34.72
2023-03-25T16:59:34.630Z,34.78
2023-03-25T17:02:28.096Z,35.05
2023-03-25T17:05:19.125Z,35.01
2023-03-25T17:08:12.081Z,34.84
2023-03-25T17:11:01.748Z,35.00
2023-03-25T17:13:52.263Z,34.89
2023-03-25T17:16:43.075Z,34.98
2023-03-25T17:19:31.770Z,35.15
2023-03-25T17:22:26.242Z,35.25
2023-03-25T17:25:18.525Z,34.96
2023-03-25T17:28:19.937Z,34.89
2023-03-25T17:31:28.006Z,34.86
2023-03-25T17:34:21.398Z,35.38
2023-03-25T17:37:14.404Z,35.63
2023-03-25T17:40:11.440Z,36.20
2023-03-25T17:43:00.107Z,36.39
2023-03-25T17:45:49.049Z,36.36
2023-03-25T17:48:37.796Z,36.46
2023-03-25T17:51:29.344Z,36.64
2023-03-25T17:54:18.101Z,36.98
2023-03-25T17:57:10.639Z,37.02
2023-03-25T18:00:00.772Z,37.23
2023-03-25T18:02:51.025Z,36.87
2023-03-25T18:05:39.915Z,37.33
2023-03-25T18:08:30.816Z,36.79
2023-03-25T18:11:21.920Z,37.06
2023-03-25T18:14:10.495Z,37.32
2023-03-25T18:16:59.059Z,37.04
2023-03-25T18:19:47.689Z,36.97
2023-03-25T18:22:36.642Z,37.42
2023-03-25T18:25:29.378Z,37.81
2023-03-25T18:28:18.087Z,37.90
2023-03-25T18:31:06.878Z,37.50
2023-03-25T18:33:56.541Z,37.67
2023-03-25T18:36:45.721Z,37.85
2023-03-25T18:39:34.313Z,37.90
2023-03-25T18:42:24.423Z,38.29
2023-03-25T18:45:13.499Z,38.25
2023-03-25T18:48:02.221Z,38.13
2023-03-25T18:50:53.518Z,38.07
2023-03-25T18:53:42.641Z,38.18
2023-03-25T18:56:31.923Z,38.20
2023-03-25T18:59:21.953Z,37.99
2023-03-25T19:02:10.583Z,37.85
2023-03-25T19:05:00.881Z,37.75
2023-03-25T19:07:50.359Z,38.02
2023-03-25T19:10:39.091Z,37.97
2023-03-25T19:13:27.763Z,37.91
2023-03-25T19:16:17.797Z,37.87
2023-03-25T19:19:06.558Z,37.50
2023-03-25T19:21:55.322Z,37.94
2023-03-25T19:24:43.980Z,37.69
2023-03-25T19:27:32.637Z,37.97
2023-03-25T19:30:23.959Z,38.13
2023-03-25T19:33:15.497Z,37.66
2023-03-25T19:36:04.781Z,37.74
2023-03-25T19:38:56.228Z,38.06
2023-03-25T19:41:46.538Z,38.34
2023-03-25T19:44:35.489Z,38.05
2023-03-25T19:47:24.079Z,38.33
2023-03-25T19:50:18.970Z,38.13
2023-03-25T19:53:07.801Z,38.10
2023-03-25T19:55:58.329Z,38.21
2023-03-25T19:58:50.344Z,38.51
2023-03-25T20:01:41.631Z,38.39
2023-03-25T20:04:30.395Z,38.22
2023-03-25T20:07:21.388Z,38.39
2023-03-25T20:10:19.674Z,38.49
2023-03-25T20:13:10.030Z,38.39
2023-03-25T20:15:58.946Z,38.24
2023-03-25T20:18:47.684Z,38.09
2023-03-25T20:21:37.958Z,38.13
2023-03-25T20:24:28.102Z,38.20
2023-03-25T20:27:16.654Z,38.46
2023-03-25T20:30:07.304Z,38.43
2023-03-25T20:32:58.317Z,38.38
2023-03-25T20:35:47.280Z,38.37
2023-03-25T20:38:41.995Z,38.36
2023-03-25T20:41:37.444Z,38.50
2023-03-25T20:44:26.270Z,38.24
2023-03-25T20:47:14.919Z,38.33
2023-03-25T20:50:03.682Z,38.60
2023-03-25T20:52:52.669Z,38.50
2023-03-25T20:55:41.337Z,38.18
2023-03-25T20:58:32.104Z,38.52
2023-03-25T21:01:21.251Z,38.44
2023-03-25T21:04:11.540Z,38.33
2023-03-25T21:07:00.380Z,38.52
2023-03-25T21:09:49.294Z,38.50
2023-03-25T21:12:44.018Z,38.77
2023-03-25T21:15:34.595Z,38.82
2023-03-25T21:18:24.205Z,38.96
2023-03-25T21:21:12.844Z,38.73
2023-03-25T21:24:03.582Z,38.46
2023-03-25T21:26:52.176Z,38.73
2023-03-25T21:29:40.756Z,38.62
2023-03-25T21:32:30.802Z,38.56
2023-03-25T21:35:19.953Z,38.31
2023-03-25T21:38:08.636Z,37.92
2023-03-25T21:40:58.383Z,38.31
2023-03-25T21:43:47.515Z,38.45
2023-03-25T21:46:36.737Z,38.45
2023-03-25T21:49:29.144Z,38.61
2023-03-25T21:52:17.915Z,38.40
2023-03-25T21:55:07.532Z,38.24
2023-03-25T21:57:56.356Z,38.43
2023-03-25T22:00:46.075Z,38.62
2023-03-25T22:03:37.291Z,38.48
2023-03-25T22:06:29.126Z,38.67
2023-03-25T22:09:17.710Z,38.46
2023-03-25T22:12:07.722Z,38.42
2023-03-25T22:14:56.535Z,38.45
2023-03-25T22:17:45.195Z,38.56
2023-03-25T22:20:33.913Z,38.45
2023-03-25T22:23:24.201Z,38.62
2023-03-25T22:26:13.668Z,38.53
2023-03-25T22:29:04.854Z,38.37
2023-03-25T22:31:55.702Z,38.40
2023-03-25T22:34:44.522Z,38.36
2023-03-25T22:37:36.800Z,38.67
2023-03-25T22:40:28.813Z,38.57
2023-03-25T22:43:17.465Z,38.45
2023-03-25T22:46:09.142Z,38.48
2023-03-25T22:48:57.837Z,38.35
2023-03-25T22:51:46.722Z,38.38
2023-03-25T22:54:35.474Z,38.68
2023-03-25T22:57:25.608Z,38.51
2023-03-25T23:00:15.970Z,38.11
2023-03-25T23:03:04.990Z,38.34
2023-03-25T23:06:00.858Z,38.32
2023-03-25T23:08:50.113Z,39.82
2023-03-25T23:11:40.627Z,39.32
2023-03-25T23:14:30.726Z,39.14
2023-03-25T23:17:20.145Z,38.83
2023-03-25T23:20:10.067Z,38.81
2023-03-25T23:22:58.710Z,38.67
2023-03-25T23:25:47.301Z,39.03
2023-03-25T23:28:37.865Z,38.69
2023-03-25T23:31:29.816Z,38.83
2023-03-25T23:34:18.830Z,38.62
2023-03-25T23:37:09.209Z,38.58
2023-03-25T23:39:57.972Z,38.46
2023-03-25T23:42:49.462Z,38.41
2023-03-25T23:45:38.171Z,38.03
2023-03-25T23:48:31.596Z,38.01
2023-03-25T23:51:22.603Z,38.04
2023-03-25T23:54:13.344Z,37.95
2023-03-25T23:57:02.327Z,37.89
2023-03-25T23:59:51.297Z,37.74
